HUN778 LHBP-EGPH
Flight info
| Callsign | HUN778 |
|---|---|
| Flight time | N/A |
| Altitude | 38000 |
| Route | BADOV DCT MAVOR DCT KATQA DCT ELMEK DCT VEXIL DCT KATCE DCT WRB DCT TENLI DCT BERGI L602 AMGOD DCT GODOS DCT NATEB Y96 AGPED |
| Aircraft | A21N/M-SDE2E3FGHIJ1RWXY/LB1 |
Departure
| Time | N/A |
|---|---|
| Airport | Budapest Liszt Ferenc International Airport (LHBP) |
Arrival
| Time | 2026-04-26 09:06 |
|---|---|
| Airport | Edinburgh Airport (EGPH) |
| Time | Latitude | Longitude | Altitude | Speed | Heading |
|---|---|---|---|---|---|
| 2026-04-26 08:43 | 54.95910 | -1.44570 | 30572 ft | 419 kts | 296° |
| 2026-04-26 08:43 | 54.97314 | -1.49011 | 29794 ft | 419 kts | 296° |
| 2026-04-26 08:43 | 54.98706 | -1.53431 | 29051 ft | 418 kts | 296° |
| 2026-04-26 08:43 | 55.00108 | -1.57886 | 28298 ft | 418 kts | 296° |
| 2026-04-26 08:44 | 55.01492 | -1.62291 | 27700 ft | 412 kts | 296° |
| 2026-04-26 08:44 | 55.02858 | -1.66633 | 27546 ft | 398 kts | 296° |
| 2026-04-26 08:44 | 55.04172 | -1.70799 | 27399 ft | 384 kts | 296° |
| 2026-04-26 08:44 | 55.05495 | -1.74794 | 27208 ft | 373 kts | 297° |
| 2026-04-26 08:45 | 55.06779 | -1.78610 | 26955 ft | 363 kts | 297° |
| 2026-04-26 08:45 | 55.08034 | -1.82349 | 26714 ft | 353 kts | 297° |
| 2026-04-26 08:45 | 55.09275 | -1.86077 | 26180 ft | 352 kts | 297° |
| 2026-04-26 08:45 | 55.10480 | -1.89711 | 25651 ft | 351 kts | 297° |
| 2026-04-26 08:46 | 55.11702 | -1.93400 | 25118 ft | 350 kts | 297° |
| 2026-04-26 08:46 | 55.12923 | -1.97087 | 24593 ft | 350 kts | 297° |
| 2026-04-26 08:46 | 55.14131 | -2.00739 | 24071 ft | 349 kts | 297° |
| 2026-04-26 08:46 | 55.15356 | -2.04441 | 23544 ft | 349 kts | 297° |
| 2026-04-26 08:47 | 55.16555 | -2.08073 | 23046 ft | 348 kts | 297° |
| 2026-04-26 08:47 | 55.17765 | -2.11749 | 22542 ft | 347 kts | 297° |
| 2026-04-26 08:47 | 55.18959 | -2.15381 | 22046 ft | 347 kts | 297° |
| 2026-04-26 08:47 | 55.20170 | -2.19070 | 21543 ft | 346 kts | 297° |
| 2026-04-26 08:48 | 55.21360 | -2.22700 | 21046 ft | 346 kts | 297° |
| 2026-04-26 08:48 | 55.22555 | -2.26359 | 20534 ft | 345 kts | 297° |
| 2026-04-26 08:48 | 55.23729 | -2.29952 | 20264 ft | 336 kts | 297° |
| 2026-04-26 08:48 | 55.24870 | -2.33449 | 20259 ft | 332 kts | 297° |
| 2026-04-26 08:49 | 55.26011 | -2.36958 | 20250 ft | 333 kts | 297° |
| 2026-04-26 08:49 | 55.27167 | -2.40516 | 20244 ft | 333 kts | 297° |
| 2026-04-26 08:49 | 55.28307 | -2.44029 | 20245 ft | 333 kts | 297° |
| 2026-04-26 08:49 | 55.29444 | -2.47539 | 20242 ft | 333 kts | 297° |
| 2026-04-26 08:50 | 55.30595 | -2.51095 | 20243 ft | 332 kts | 297° |
| 2026-04-26 08:50 | 55.31788 | -2.54527 | 20235 ft | 333 kts | 306° |
| 2026-04-26 08:50 | 55.33449 | -2.57382 | 19897 ft | 333 kts | 317° |
| 2026-04-26 08:50 | 55.35265 | -2.59883 | 19401 ft | 334 kts | 320° |
| 2026-04-26 08:51 | 55.39010 | -2.64830 | 18269 ft | 339 kts | 320° |
| 2026-04-26 08:51 | 55.40879 | -2.67300 | 17635 ft | 338 kts | 320° |
| 2026-04-26 08:51 | 55.42768 | -2.69802 | 16998 ft | 335 kts | 320° |
| 2026-04-26 08:52 | 55.44603 | -2.72238 | 16373 ft | 331 kts | 320° |
| 2026-04-26 08:52 | 55.46436 | -2.74678 | 15735 ft | 328 kts | 320° |
| 2026-04-26 08:52 | 55.48241 | -2.77088 | 15106 ft | 325 kts | 320° |
| 2026-04-26 08:52 | 55.50028 | -2.79485 | 14483 ft | 323 kts | 320° |
| 2026-04-26 08:53 | 55.51799 | -2.81865 | 13855 ft | 320 kts | 320° |
| 2026-04-26 08:53 | 55.53573 | -2.84251 | 13224 ft | 316 kts | 320° |
| 2026-04-26 08:53 | 55.55284 | -2.86565 | 12637 ft | 309 kts | 320° |
| 2026-04-26 08:53 | 55.56967 | -2.88847 | 12292 ft | 302 kts | 320° |
| 2026-04-26 08:54 | 55.58602 | -2.91060 | 12242 ft | 292 kts | 320° |
| 2026-04-26 08:54 | 55.60229 | -2.93259 | 12239 ft | 293 kts | 320° |
| 2026-04-26 08:54 | 55.61834 | -2.95420 | 12224 ft | 284 kts | 320° |
| 2026-04-26 08:54 | 55.63371 | -2.97455 | 12220 ft | 271 kts | 323° |
| 2026-04-26 08:55 | 55.65107 | -2.98761 | 12219 ft | 278 kts | 349° |
| 2026-04-26 08:55 | 55.67060 | -2.98669 | 12234 ft | 282 kts | 6° |
| 2026-04-26 08:55 | 55.68996 | -2.98051 | 12114 ft | 285 kts | 9° |
| 2026-04-26 08:55 | 55.70953 | -2.97331 | 11632 ft | 290 kts | 9° |
| 2026-04-26 08:56 | 55.72931 | -2.96587 | 11061 ft | 294 kts | 9° |
| 2026-04-26 08:56 | 55.74925 | -2.95841 | 10435 ft | 292 kts | 9° |
| 2026-04-26 08:56 | 55.76883 | -2.95114 | 9816 ft | 289 kts | 10° |
| 2026-04-26 08:56 | 55.78846 | -2.94395 | 9181 ft | 286 kts | 9° |
| 2026-04-26 08:57 | 55.80780 | -2.93693 | 8557 ft | 283 kts | 10° |
| 2026-04-26 08:57 | 55.82692 | -2.93014 | 7925 ft | 284 kts | 9° |
| 2026-04-26 08:57 | 55.84629 | -2.92333 | 7289 ft | 281 kts | 10° |
| 2026-04-26 08:57 | 55.86531 | -2.91674 | 6658 ft | 277 kts | 9° |
| 2026-04-26 08:58 | 55.88392 | -2.91033 | 6024 ft | 274 kts | 9° |
| 2026-04-26 08:58 | 55.90242 | -2.90392 | 5391 ft | 271 kts | 9° |
| 2026-04-26 08:58 | 55.92087 | -2.89746 | 4756 ft | 268 kts | 9° |
| 2026-04-26 08:58 | 55.93895 | -2.89107 | 4204 ft | 264 kts | 9° |
| 2026-04-26 08:59 | 55.95675 | -2.88467 | 3965 ft | 256 kts | 9° |
| 2026-04-26 08:59 | 55.97377 | -2.87848 | 3958 ft | 246 kts | 10° |
| 2026-04-26 08:59 | 55.99031 | -2.87254 | 3962 ft | 246 kts | 9° |
| 2026-04-26 08:59 | 56.00703 | -2.86647 | 3963 ft | 245 kts | 9° |
| 2026-04-26 09:00 | 56.02408 | -2.86338 | 3934 ft | 242 kts | 350° |
| 2026-04-26 09:00 | 56.03915 | -2.87374 | 3690 ft | 234 kts | 320° |
| 2026-04-26 09:00 | 56.04888 | -2.89615 | 3291 ft | 231 kts | 288° |
| 2026-04-26 09:00 | 56.05166 | -2.92431 | 3008 ft | 226 kts | 272° |
| 2026-04-26 09:01 | 56.05222 | -2.95230 | 2976 ft | 228 kts | 270° |
| 2026-04-26 09:01 | 56.05244 | -2.98077 | 2975 ft | 229 kts | 270° |
| 2026-04-26 09:01 | 56.05261 | -3.00929 | 2976 ft | 230 kts | 270° |
| 2026-04-26 09:01 | 56.05277 | -3.03768 | 2978 ft | 230 kts | 270° |
| 2026-04-26 09:02 | 56.05193 | -3.06646 | 2967 ft | 229 kts | 256° |
| 2026-04-26 09:02 | 56.04585 | -3.09252 | 2976 ft | 224 kts | 240° |
| 2026-04-26 09:02 | 56.03791 | -3.11570 | 2965 ft | 210 kts | 237° |
| 2026-04-26 09:02 | 56.03032 | -3.13686 | 2961 ft | 199 kts | 237° |
| 2026-04-26 09:03 | 56.02314 | -3.15728 | 2790 ft | 189 kts | 237° |
| 2026-04-26 09:03 | 56.01638 | -3.17697 | 2500 ft | 180 kts | 238° |
| 2026-04-26 09:03 | 56.01012 | -3.19535 | 2256 ft | 164 kts | 238° |
| 2026-04-26 09:03 | 56.00448 | -3.21198 | 2006 ft | 152 kts | 238° |
| 2026-04-26 09:04 | 55.99910 | -3.22782 | 1785 ft | 146 kts | 237° |
| 2026-04-26 09:04 | 55.99383 | -3.24331 | 1603 ft | 146 kts | 238° |
| 2026-04-26 09:04 | 55.98859 | -3.25876 | 1421 ft | 146 kts | 238° |
| 2026-04-26 09:04 | 55.98332 | -3.27424 | 1229 ft | 145 kts | 238° |
| 2026-04-26 09:05 | 55.97809 | -3.28965 | 1033 ft | 145 kts | 238° |
| 2026-04-26 09:05 | 55.97292 | -3.30488 | 836 ft | 144 kts | 238° |
| 2026-04-26 09:05 | 55.96768 | -3.32030 | 633 ft | 144 kts | 238° |
| 2026-04-26 09:05 | 55.96247 | -3.33566 | 433 ft | 143 kts | 238° |
| 2026-04-26 09:06 | 55.95736 | -3.35072 | 232 ft | 142 kts | 239° |
| 2026-04-26 09:06 | 55.95237 | -3.36575 | 106 ft | 140 kts | 239° |
| 2026-04-26 09:06 | 55.94858 | -3.37686 | 105 ft | 60 kts | 238° |
| 2026-04-26 09:06 | 55.94781 | -3.37907 | 106 ft | 0 kts | 238° |
| 2026-04-26 09:07 | 55.94770 | -3.37939 | 106 ft | 6 kts | 238° |
| 2026-04-26 09:07 | 55.94730 | -3.38026 | 107 ft | 11 kts | 212° |
| 2026-04-26 09:07 | 55.94675 | -3.38035 | 107 ft | 0 kts | 159° |
| 2026-04-26 09:07 | 55.94649 | -3.38012 | 107 ft | 7 kts | 150° |
| 2026-04-26 09:08 | 55.94606 | -3.37956 | 106 ft | 8 kts | 133° |
| 2026-04-26 09:08 | 55.94602 | -3.37857 | 106 ft | 9 kts | 64° |
| 2026-04-26 09:08 | 55.94638 | -3.37750 | 106 ft | 10 kts | 58° |
| 2026-04-26 09:08 | 55.94680 | -3.37628 | 105 ft | 12 kts | 60° |
| 2026-04-26 09:09 | 55.94723 | -3.37493 | 105 ft | 13 kts | 60° |
| 2026-04-26 09:09 | 55.94771 | -3.37353 | 105 ft | 13 kts | 58° |
| 2026-04-26 09:09 | 55.94820 | -3.37210 | 105 ft | 13 kts | 60° |
| 2026-04-26 09:09 | 55.94870 | -3.37058 | 105 ft | 14 kts | 59° |
| 2026-04-26 09:10 | 55.94922 | -3.36904 | 105 ft | 14 kts | 59° |
| 2026-04-26 09:10 | 55.94975 | -3.36750 | 105 ft | 14 kts | 59° |
| 2026-04-26 09:10 | 55.95029 | -3.36589 | 105 ft | 15 kts | 59° |
| 2026-04-26 09:10 | 55.95084 | -3.36428 | 105 ft | 15 kts | 59° |
| 2026-04-26 09:11 | 55.95135 | -3.36260 | 105 ft | 15 kts | 78° |
| 2026-04-26 09:11 | 55.95114 | -3.36108 | 105 ft | 11 kts | 110° |
| 2026-04-26 09:11 | 55.95086 | -3.35972 | 106 ft | 11 kts | 114° |
| 2026-04-26 09:11 | 55.95042 | -3.35849 | 106 ft | 12 kts | 146° |
| 2026-04-26 09:12 | 55.94991 | -3.35864 | 106 ft | 5 kts | 216° |
| 2026-04-26 09:12 | 55.94952 | -3.35878 | 106 ft | 6 kts | 170° |
| 2026-04-26 09:12 | 55.94915 | -3.35828 | 106 ft | 6 kts | 140° |
| 2026-04-26 09:12 | 55.94873 | -3.35847 | 106 ft | 7 kts | 218° |
| 2026-04-26 09:13 | 55.94854 | -3.35868 | 106 ft | 0 kts | 210° |